Time;durP1;ratioP1;P1;durP2;ratioP2;P2;SDS_P1;SDS_P2;PMS_P1;PMS_P2;Temp;Humidity;BMP_temperature;BMP_pressure;BME280_temperature;BME280_humidity;BME280_pressure;Samples;Min_cycle;Max_cycle;Signal;HPM_P1;HPM_P2
2023/09/02 00:01:47;;;;;;;;;;;16.00;91.10;;;;;;5039220;28;19913;-81
2023/09/02 00:04:13;;;;;;;;;;;16.10;91.10;;;;;;5040584;28;20458;-81
2023/09/02 00:06:38;;;;;;;;;;;16.10;91.20;;;;;;5037480;28;19948;-80
2023/09/02 00:09:04;;;;;;;;;;;16.10;91.20;;;;;;5049724;28;19914;-81
2023/09/02 00:11:29;;;;;;;;;;;16.10;91.30;;;;;;5037998;28;20269;-81
2023/09/02 00:13:55;;;;;;;;;;;16.10;91.30;;;;;;5052140;28;19909;-82
2023/09/02 00:16:20;;;;;;;;;;;16.10;91.40;;;;;;5053895;28;19928;-80
2023/09/02 00:18:46;;;;;;;;;;;16.10;91.40;;;;;;5044270;28;20332;-82
2023/09/02 00:21:12;;;;;;;;;;;16.20;91.50;;;;;;5043560;28;19977;-82
2023/09/02 00:23:39;;;;;;;;;;;16.30;91.40;;;;;;5040112;28;19912;-82
2023/09/02 00:26:05;;;;;;;;;;;16.30;91.40;;;;;;5041425;28;19913;-82
2023/09/02 00:28:30;;;;;;;;;;;16.20;91.30;;;;;;5038634;28;19979;-80
2023/09/02 00:30:55;;;;;;;;;;;16.20;91.20;;;;;;5052593;28;19963;-81
2023/09/02 00:33:21;;;;;;;;;;;16.20;91.10;;;;;;5034653;28;19916;-80
2023/09/02 00:35:46;;;;;;;;;;;16.10;91.40;;;;;;5029066;28;19984;-81
2023/09/02 00:38:12;;;;;;;;;;;16.10;91.40;;;;;;5030200;28;20406;-81
2023/09/02 00:40:42;;;;;;;;;;;16.10;91.40;;;;;;5047903;28;19910;-80
2023/09/02 00:43:07;;;;;;;;;;;16.20;91.50;;;;;;5052312;28;19929;-81
2023/09/02 00:45:33;;;;;;;;;;;16.20;91.60;;;;;;5044429;28;19913;-81
2023/09/02 00:47:59;;;;;;;;;;;16.20;91.30;;;;;;5032592;28;19963;-81
2023/09/02 00:50:25;;;;;;;;;;;16.10;91.30;;;;;;5034212;28;19953;-81
2023/09/02 00:52:51;;;;;;;;;;;16.20;91.30;;;;;;5029322;28;20015;-81
2023/09/02 00:55:17;;;;;;;;;;;16.20;91.20;;;;;;5036945;28;20028;-81
2023/09/02 00:57:42;;;;;;;;;;;16.20;91.10;;;;;;5037181;28;19964;-81
2023/09/02 01:00:09;;;;;;;;;;;16.20;91.10;;;;;;5039799;28;19916;-82
2023/09/02 01:02:36;;;;;;;;;;;16.20;91.10;;;;;;5040173;28;19916;-80
2023/09/02 01:05:02;;;;;;;;;;;16.20;91.10;;;;;;5037028;28;19921;-80
2023/09/02 01:07:27;;;;;;;;;;;16.20;91.10;;;;;;5034858;28;19945;-81
2023/09/02 01:09:54;;;;;;;;;;;16.30;91.10;;;;;;5037103;28;19959;-81
2023/09/02 01:12:20;;;;;;;;;;;16.20;91.40;;;;;;5036133;28;19936;-81
2023/09/02 01:14:45;;;;;;;;;;;16.30;91.50;;;;;;5029375;28;19921;-81
2023/09/02 01:17:11;;;;;;;;;;;16.30;91.20;;;;;;5036146;28;19909;-81
2023/09/02 01:19:37;;;;;;;;;;;16.30;91.00;;;;;;5029984;28;20355;-80
2023/09/02 01:22:14;;;;;;;;;;;16.40;90.90;;;;;;5029089;28;19964;-80
2023/09/02 01:24:50;;;;;;;;;;;16.30;90.80;;;;;;5032553;28;19909;-80
2023/09/02 01:27:32;;;;;;;;;;;16.30;90.90;;;;;;5030906;28;19976;-80
2023/09/02 01:30:04;;;;;;;;;;;16.30;90.90;;;;;;5033299;28;20375;-80
2023/09/02 01:32:34;;;;;;;;;;;16.30;91.00;;;;;;5030509;28;19921;-81
2023/09/02 01:35:06;;;;;;;;;;;16.40;91.00;;;;;;5031813;28;19925;-81
2023/09/02 01:37:32;;;;;;;;;;;16.40;90.90;;;;;;5028859;28;20016;-80
2023/09/02 01:39:58;;;;;;;;;;;16.40;90.70;;;;;;5033441;28;20018;-81
2023/09/02 01:42:24;;;;;;;;;;;16.50;90.90;;;;;;5030243;28;19976;-81
2023/09/02 01:44:50;;;;;;;;;;;16.50;91.00;;;;;;5029871;28;19921;-80
2023/09/02 01:47:16;;;;;;;;;;;16.50;90.80;;;;;;5020867;28;19986;-80
2023/09/02 01:49:42;;;;;;;;;;;16.60;90.90;;;;;;5031143;28;19909;-81
2023/09/02 01:52:08;;;;;;;;;;;16.60;90.40;;;;;;5031406;28;19917;-80
2023/09/02 01:54:34;;;;;;;;;;;16.70;90.10;;;;;;5030033;28;20367;-80
2023/09/02 01:57:00;;;;;;;;;;;16.70;90.00;;;;;;5029832;28;20009;-80
2023/09/02 01:59:25;;;;;;;;;;;16.80;89.80;;;;;;5032710;28;19944;-81
2023/09/02 02:01:50;;;;;;;;;;;16.80;89.60;;;;;;5035542;28;19913;-81
2023/09/02 02:04:36;;;;;;;;;;;16.70;89.60;;;;;;5031025;28;19914;-81
2023/09/02 02:07:04;;;;;;;;;;;16.70;89.80;;;;;;5045328;28;19940;-81
2023/09/02 02:09:32;;;;;;;;;;;16.70;89.70;;;;;;5033569;28;20079;-80
2023/09/02 02:11:59;;;;;;;;;;;16.70;89.90;;;;;;5030360;28;20539;-81
2023/09/02 02:14:25;;;;;;;;;;;16.80;89.80;;;;;;5032986;28;19933;-80
2023/09/02 02:16:50;;;;;;;;;;;16.80;89.40;;;;;;5024878;28;19917;-81
2023/09/02 02:19:16;;;;;;;;;;;16.80;89.40;;;;;;5033508;28;19944;-81
2023/09/02 02:21:41;;;;;;;;;;;16.80;89.30;;;;;;5029885;28;20270;-80
2023/09/02 02:24:07;;;;;;;;;;;16.80;89.50;;;;;;5048000;28;19998;-80
2023/09/02 02:26:32;;;;;;;;;;;16.80;89.50;;;;;;5032109;28;19909;-80
2023/09/02 02:28:57;;;;;;;;;;;16.90;89.10;;;;;;5031745;28;20375;-81
2023/09/02 02:31:23;;;;;;;;;;;17.00;88.80;;;;;;5033902;28;19920;-80
2023/09/02 02:36:14;;;;;;;;;;;16.80;89.20;;;;;;5102515;22;20420;-89
2023/09/02 02:38:42;;;;;;;;;;;17.00;89.10;;;;;;5065669;28;20320;-88
2023/09/02 02:41:08;;;;;;;;;;;17.00;89.50;;;;;;5068001;28;19965;-88
2023/09/02 02:43:35;;;;;;;;;;;17.00;89.80;;;;;;5063811;28;19912;-88
2023/09/02 02:46:00;;;;;;;;;;;17.10;89.90;;;;;;5065057;28;19909;-88
2023/09/02 02:48:27;;;;;;;;;;;17.10;89.50;;;;;;5092986;28;19915;-89
2023/09/02 02:50:55;;;;;;;;;;;17.10;89.00;;;;;;5074650;28;20003;-88
2023/09/02 02:53:31;;;;;;;;;;;17.20;89.10;;;;;;5078033;28;20433;-88
2023/09/02 02:56:02;;;;;;;;;;;17.10;89.40;;;;;;5072147;28;20049;-88
2023/09/02 02:58:33;;;;;;;;;;;17.10;89.50;;;;;;5069549;28;19908;-88
2023/09/02 03:01:06;;;;;;;;;;;17.10;89.20;;;;;;5070249;28;19930;-88
2023/09/02 03:03:37;;;;;;;;;;;17.30;88.60;;;;;;5096273;28;19912;-88
2023/09/02 03:06:04;;;;;;;;;;;17.20;88.80;;;;;;5093973;28;20381;-88
2023/09/02 03:08:30;;;;;;;;;;;17.10;88.70;;;;;;5085801;28;19961;-88
2023/09/02 03:10:58;;;;;;;;;;;17.10;89.00;;;;;;5077696;28;20335;-88
2023/09/02 03:13:39;;;;;;;;;;;17.20;89.40;;;;;;5085333;28;19995;-88
2023/09/02 03:16:04;;;;;;;;;;;17.20;89.50;;;;;;5071311;28;19908;-88
2023/09/02 03:18:36;;;;;;;;;;;17.20;89.20;;;;;;5076078;28;19935;-88
2023/09/02 03:21:03;;;;;;;;;;;17.30;89.10;;;;;;5067625;28;20446;-88
2023/09/02 03:23:37;;;;;;;;;;;17.30;88.90;;;;;;5078816;28;19961;-88
2023/09/02 03:26:09;;;;;;;;;;;17.30;89.00;;;;;;5066201;28;19923;-87
2023/09/02 03:28:36;;;;;;;;;;;17.40;88.90;;;;;;5074131;28;19912;-86
2023/09/02 03:31:06;;;;;;;;;;;17.30;88.90;;;;;;5070530;28;19958;-86
2023/09/02 03:33:32;;;;;;;;;;;17.40;88.60;;;;;;5077608;28;19973;-87
2023/09/02 03:35:57;;;;;;;;;;;17.30;88.80;;;;;;5075892;28;20019;-86
2023/09/02 03:38:23;;;;;;;;;;;17.50;88.50;;;;;;5068605;28;19983;-86
2023/09/02 03:40:51;;;;;;;;;;;17.40;88.40;;;;;;5079181;28;19923;-86
2023/09/02 03:43:16;;;;;;;;;;;17.30;88.90;;;;;;5075349;28;19954;-86
2023/09/02 03:45:42;;;;;;;;;;;17.40;89.00;;;;;;5076474;28;19908;-86
2023/09/02 03:48:18;;;;;;;;;;;17.30;88.80;;;;;;5069588;28;19922;-86
2023/09/02 03:51:11;;;;;;;;;;;17.30;88.90;;;;;;5057934;28;20301;-86
2023/09/02 03:53:37;;;;;;;;;;;17.30;89.10;;;;;;5065364;28;19916;-86
2023/09/02 03:56:06;;;;;;;;;;;17.30;89.00;;;;;;5076724;28;19908;-86
2023/09/02 03:58:31;;;;;;;;;;;17.10;89.50;;;;;;5093635;28;20003;-86
2023/09/02 04:00:57;;;;;;;;;;;17.10;89.60;;;;;;5072998;28;19970;-86
2023/09/02 04:03:25;;;;;;;;;;;17.10;89.60;;;;;;5091127;28;20377;-87
2023/09/02 04:05:52;;;;;;;;;;;17.10;89.80;;;;;;5084918;28;20389;-86
2023/09/02 04:08:21;;;;;;;;;;;17.10;89.90;;;;;;5069695;28;20373;-86
2023/09/02 04:10:51;;;;;;;;;;;17.10;89.90;;;;;;5076408;28;19931;-86
2023/09/02 04:13:23;;;;;;;;;;;17.00;90.20;;;;;;5072645;28;20369;-85
2023/09/02 04:15:52;;;;;;;;;;;16.90;90.30;;;;;;5090779;28;19959;-85
2023/09/02 04:18:18;;;;;;;;;;;16.80;90.50;;;;;;5074525;28;20327;-86
2023/09/02 04:20:49;;;;;;;;;;;16.80;90.60;;;;;;5061977;28;19909;-86
2023/09/02 04:23:15;;;;;;;;;;;16.70;90.80;;;;;;5061430;28;20360;-86
2023/09/02 04:25:48;;;;;;;;;;;16.80;90.80;;;;;;5058236;28;19948;-86
2023/09/02 04:28:14;;;;;;;;;;;16.70;90.80;;;;;;5068823;28;19944;-86
2023/09/02 04:30:49;;;;;;;;;;;16.80;91.00;;;;;;5074696;28;19962;-86
2023/09/02 04:33:18;;;;;;;;;;;16.80;91.00;;;;;;5065340;28;19966;-86
2023/09/02 04:35:44;;;;;;;;;;;16.80;91.00;;;;;;5084188;28;19917;-86
2023/09/02 04:38:14;;;;;;;;;;;16.90;90.70;;;;;;5070611;28;19920;-87
2023/09/02 04:40:49;;;;;;;;;;;16.80;90.60;;;;;;5064723;28;19908;-87
2023/09/02 04:43:15;;;;;;;;;;;16.80;90.70;;;;;;5080092;28;19922;-87
2023/09/02 04:45:41;;;;;;;;;;;16.80;90.80;;;;;;5083681;28;20458;-87
2023/09/02 04:48:07;;;;;;;;;;;16.80;91.00;;;;;;5076111;28;20413;-87
2023/09/02 04:50:33;;;;;;;;;;;16.80;91.10;;;;;;5067197;28;19908;-86
2023/09/02 04:52:59;;;;;;;;;;;16.80;91.20;;;;;;5087712;28;20010;-86
2023/09/02 04:55:28;;;;;;;;;;;16.70;91.30;;;;;;5057796;28;19909;-84
2023/09/02 04:57:57;;;;;;;;;;;16.60;91.40;;;;;;5084721;28;19912;-85
2023/09/02 05:00:24;;;;;;;;;;;16.70;91.50;;;;;;5084621;28;19920;-88
2023/09/02 05:02:50;;;;;;;;;;;16.60;91.50;;;;;;5083670;28;19908;-88
2023/09/02 05:05:16;;;;;;;;;;;16.60;91.50;;;;;;5065448;28;20431;-92
2023/09/02 05:07:41;;;;;;;;;;;16.60;91.60;;;;;;5068836;28;20444;-86
2023/09/02 05:10:07;;;;;;;;;;;16.60;91.60;;;;;;5084507;28;20006;-86
2023/09/02 05:12:49;;;;;;;;;;;16.60;91.70;;;;;;5063743;28;19916;-89
2023/09/02 05:15:15;;;;;;;;;;;16.60;91.70;;;;;;5065986;28;20004;-87
2023/09/02 05:17:42;;;;;;;;;;;16.60;91.80;;;;;;5067575;28;19990;-88
2023/09/02 05:20:08;;;;;;;;;;;16.60;91.80;;;;;;5064970;28;19937;-89
2023/09/02 05:22:38;;;;;;;;;;;16.60;91.70;;;;;;5068898;28;19908;-87
2023/09/02 05:25:04;;;;;;;;;;;16.60;91.70;;;;;;5072268;28;19912;-91
2023/09/02 05:27:30;;;;;;;;;;;16.60;91.80;;;;;;5063826;28;20061;-89
2023/09/02 05:29:55;;;;;;;;;;;16.60;91.80;;;;;;5066043;28;19923;-87
2023/09/02 05:32:21;;;;;;;;;;;16.60;91.80;;;;;;5066467;28;19920;-88
2023/09/02 05:34:46;;;;;;;;;;;16.70;92.00;;;;;;5064356;28;20010;-87
2023/09/02 05:37:12;;;;;;;;;;;16.70;91.80;;;;;;5084105;28;19923;-84
2023/09/02 05:39:38;;;;;;;;;;;16.60;91.80;;;;;;5066192;28;19919;-87
2023/09/02 05:42:03;;;;;;;;;;;16.60;92.00;;;;;;5078520;28;20020;-84
2023/09/02 05:44:29;;;;;;;;;;;16.70;92.10;;;;;;5061657;28;19919;-86
2023/09/02 05:46:54;;;;;;;;;;;16.80;92.00;;;;;;5074327;28;20019;-87
2023/09/02 05:49:20;;;;;;;;;;;16.80;92.00;;;;;;5068553;28;19912;-86
2023/09/02 05:51:45;;;;;;;;;;;16.90;91.90;;;;;;5070543;28;20557;-85
2023/09/02 05:54:11;;;;;;;;;;;16.90;92.00;;;;;;5069479;28;20653;-83
2023/09/02 05:56:38;;;;;;;;;;;17.00;91.90;;;;;;5079182;28;20238;-85
2023/09/02 05:59:04;;;;;;;;;;;17.10;91.80;;;;;;5084149;28;19998;-88
2023/09/02 06:01:30;;;;;;;;;;;17.10;91.70;;;;;;5063895;28;19920;-86
2023/09/02 06:03:55;;;;;;;;;;;17.10;91.70;;;;;;5085714;28;19958;-86
2023/09/02 06:06:21;;;;;;;;;;;17.10;91.70;;;;;;5083997;28;19912;-86
2023/09/02 06:08:46;;;;;;;;;;;17.10;91.70;;;;;;5067266;28;19916;-86
2023/09/02 06:11:12;;;;;;;;;;;17.20;91.30;;;;;;5069568;28;19926;-86
2023/09/02 06:13:37;;;;;;;;;;;17.20;91.30;;;;;;5081963;28;20037;-86
2023/09/02 06:16:04;;;;;;;;;;;17.30;91.40;;;;;;5064009;28;19919;-86
2023/09/02 06:18:30;;;;;;;;;;;17.30;91.20;;;;;;5077957;28;19912;-86
2023/09/02 06:20:56;;;;;;;;;;;17.30;91.20;;;;;;5085308;28;20289;-86
2023/09/02 06:23:27;;;;;;;;;;;17.40;91.30;;;;;;5084989;28;19912;-87
2023/09/02 06:25:56;;;;;;;;;;;17.50;91.20;;;;;;5071613;28;19921;-86
2023/09/02 06:28:22;;;;;;;;;;;17.50;91.20;;;;;;5090004;28;19912;-86
2023/09/02 06:30:47;;;;;;;;;;;17.60;91.30;;;;;;5066867;28;19920;-86
2023/09/02 06:33:13;;;;;;;;;;;17.60;91.20;;;;;;5086288;28;19927;-86
2023/09/02 06:35:38;;;;;;;;;;;17.60;91.10;;;;;;5082764;28;19916;-87
2023/09/02 06:38:04;;;;;;;;;;;17.70;91.20;;;;;;5057703;28;19920;-87
2023/09/02 06:40:29;;;;;;;;;;;17.80;90.70;;;;;;5087154;28;19923;-87
2023/09/02 06:42:55;;;;;;;;;;;17.80;90.60;;;;;;5088523;28;19912;-87
2023/09/02 06:45:21;;;;;;;;;;;17.90;90.70;;;;;;5053873;28;20085;-87
2023/09/02 06:47:46;;;;;;;;;;;17.90;90.70;;;;;;5070902;28;19912;-87
2023/09/02 06:50:11;;;;;;;;;;;18.00;90.30;;;;;;5066006;28;19920;-87
2023/09/02 06:52:37;;;;;;;;;;;18.00;90.30;;;;;;5085304;28;19916;-87
2023/09/02 06:55:03;;;;;;;;;;;18.10;90.30;;;;;;5082318;28;19947;-87
2023/09/02 06:57:29;;;;;;;;;;;18.10;90.20;;;;;;5073983;28;19909;-87
2023/09/02 06:59:54;;;;;;;;;;;18.20;90.30;;;;;;5073770;28;19908;-87
2023/09/02 07:02:20;;;;;;;;;;;18.20;90.00;;;;;;5071481;28;19961;-87
2023/09/02 07:04:47;;;;;;;;;;;18.30;90.10;;;;;;5064777;28;19919;-87
2023/09/02 07:07:12;;;;;;;;;;;18.30;90.10;;;;;;5077730;28;20381;-87
2023/09/02 07:09:38;;;;;;;;;;;18.30;90.10;;;;;;5053602;28;19908;-87
2023/09/02 07:12:03;;;;;;;;;;;18.30;90.10;;;;;;5053515;28;19913;-88
2023/09/02 07:14:29;;;;;;;;;;;18.50;89.90;;;;;;5061387;28;19996;-87
2023/09/02 07:16:54;;;;;;;;;;;18.50;89.70;;;;;;5070158;28;20023;-87
2023/09/02 07:19:20;;;;;;;;;;;18.50;89.80;;;;;;5060332;28;20401;-87
2023/09/02 07:21:45;;;;;;;;;;;18.60;89.60;;;;;;5085167;28;20388;-87
2023/09/02 07:24:11;;;;;;;;;;;18.60;89.10;;;;;;5078210;28;19999;-87
2023/09/02 07:26:36;;;;;;;;;;;18.60;88.10;;;;;;5061987;28;19978;-87
2023/09/02 07:29:01;;;;;;;;;;;18.70;88.40;;;;;;5055670;28;19966;-87
2023/09/02 07:31:27;;;;;;;;;;;18.70;88.70;;;;;;5074607;28;20009;-87
2023/09/02 07:33:52;;;;;;;;;;;18.70;88.80;;;;;;5061340;28;19912;-87
2023/09/02 07:36:18;;;;;;;;;;;18.70;88.50;;;;;;5075337;28;20010;-87
2023/09/02 07:38:46;;;;;;;;;;;18.80;88.30;;;;;;5067710;28;20401;-87
2023/09/02 07:41:12;;;;;;;;;;;18.80;87.70;;;;;;5059348;28;19927;-87
2023/09/02 07:43:37;;;;;;;;;;;18.90;88.20;;;;;;5072882;28;20449;-88
2023/09/02 07:46:03;;;;;;;;;;;18.90;88.00;;;;;;5086345;28;19912;-87
2023/09/02 07:48:28;;;;;;;;;;;18.90;88.30;;;;;;5085659;28;19912;-88
2023/09/02 07:50:54;;;;;;;;;;;19.00;88.10;;;;;;5080982;28;19924;-87
2023/09/02 07:53:19;;;;;;;;;;;19.10;87.40;;;;;;5060935;28;20018;-87
2023/09/02 07:55:44;;;;;;;;;;;19.10;87.40;;;;;;5082385;28;19912;-86
2023/09/02 07:58:10;;;;;;;;;;;19.10;86.80;;;;;;5059586;28;19916;-87
2023/09/02 08:00:36;;;;;;;;;;;19.10;87.00;;;;;;5063983;28;19912;-87
2023/09/02 08:03:02;;;;;;;;;;;19.20;87.10;;;;;;5059117;28;19920;-87
2023/09/02 08:05:28;;;;;;;;;;;19.20;86.60;;;;;;5069933;28;20301;-87
2023/09/02 08:07:53;;;;;;;;;;;19.20;86.30;;;;;;5073021;28;19912;-87
2023/09/02 08:10:19;;;;;;;;;;;19.30;86.50;;;;;;5083756;28;20337;-87
2023/09/02 08:12:45;;;;;;;;;;;19.50;85.70;;;;;;5059214;28;19919;-87
2023/09/02 08:15:11;;;;;;;;;;;19.50;84.90;;;;;;5067574;28;19959;-87
2023/09/02 08:17:37;;;;;;;;;;;19.50;84.90;;;;;;5084037;28;19919;-87
2023/09/02 08:20:03;;;;;;;;;;;19.60;85.30;;;;;;5073238;28;19919;-89
2023/09/02 08:22:29;;;;;;;;;;;19.70;85.60;;;;;;5071831;28;19912;-87
2023/09/02 08:24:55;;;;;;;;;;;19.70;85.90;;;;;;5061068;28;19927;-86
2023/09/02 08:27:20;;;;;;;;;;;19.80;85.80;;;;;;5072191;28;19908;-87
2023/09/02 08:29:46;;;;;;;;;;;19.80;85.10;;;;;;5074027;28;19919;-87
2023/09/02 08:32:11;;;;;;;;;;;20.00;84.80;;;;;;5073035;28;19927;-87
2023/09/02 08:34:37;;;;;;;;;;;20.00;84.50;;;;;;5094854;22;19949;-84
2023/09/02 08:37:03;;;;;;;;;;;20.20;84.10;;;;;;5066917;28;20517;-85
2023/09/02 08:39:29;;;;;;;;;;;20.10;84.10;;;;;;5103438;28;20357;-84
2023/09/02 08:41:55;;;;;;;;;;;20.00;84.20;;;;;;5085112;28;19956;-84
2023/09/02 08:44:21;;;;;;;;;;;20.00;84.90;;;;;;5073605;28;20278;-85
2023/09/02 08:46:48;;;;;;;;;;;20.00;84.20;;;;;;5069227;28;19915;-85
2023/09/02 08:49:15;;;;;;;;;;;20.00;83.50;;;;;;5095059;28;19939;-85
2023/09/02 08:51:41;;;;;;;;;;;20.10;83.50;;;;;;5067036;28;19925;-84
2023/09/02 08:54:07;;;;;;;;;;;20.00;83.40;;;;;;5075115;28;20404;-84
2023/09/02 08:56:33;;;;;;;;;;;20.00;83.80;;;;;;5076149;28;19966;-84
2023/09/02 08:58:58;;;;;;;;;;;20.00;84.30;;;;;;5086055;28;19920;-85
2023/09/02 09:01:24;;;;;;;;;;;20.10;84.60;;;;;;5079058;28;19919;-84
2023/09/02 09:03:53;;;;;;;;;;;20.10;84.30;;;;;;5093596;28;19918;-85
2023/09/02 09:06:21;;;;;;;;;;;20.10;84.30;;;;;;5094787;28;19964;-85
2023/09/02 09:08:47;;;;;;;;;;;20.20;84.40;;;;;;5079051;28;19961;-85
2023/09/02 09:11:15;;;;;;;;;;;20.30;83.90;;;;;;5075556;28;19908;-85
2023/09/02 09:13:44;;;;;;;;;;;20.30;83.50;;;;;;5067348;28;20389;-85
2023/09/02 09:16:11;;;;;;;;;;;20.30;83.10;;;;;;5074666;28;19912;-86
2023/09/02 09:18:37;;;;;;;;;;;20.30;83.90;;;;;;5069805;28;19919;-85
2023/09/02 09:21:02;;;;;;;;;;;20.30;84.30;;;;;;5087673;28;19920;-85
2023/09/02 09:23:28;;;;;;;;;;;20.40;84.60;;;;;;5096334;28;19979;-85
2023/09/02 09:25:54;;;;;;;;;;;20.50;83.10;;;;;;5089937;28;20423;-85
2023/09/02 09:28:19;;;;;;;;;;;20.60;83.10;;;;;;5078171;28;20297;-85
2023/09/02 09:30:45;;;;;;;;;;;20.60;82.60;;;;;;5067726;28;19915;-85
2023/09/02 09:33:10;;;;;;;;;;;20.60;83.00;;;;;;5076578;28;19947;-84
2023/09/02 09:35:37;;;;;;;;;;;20.60;83.50;;;;;;5076046;28;19994;-85
2023/09/02 09:38:02;;;;;;;;;;;20.80;82.70;;;;;;5089455;28;19966;-86
2023/09/02 09:40:31;;;;;;;;;;;20.80;81.20;;;;;;5076284;28;20007;-85
2023/09/02 09:43:01;;;;;;;;;;;21.00;80.80;;;;;;5071420;28;19916;-84
2023/09/02 09:45:27;;;;;;;;;;;21.10;79.70;;;;;;5069039;28;19919;-86
2023/09/02 09:47:56;;;;;;;;;;;21.10;79.80;;;;;;5075314;28;19912;-85
2023/09/02 09:50:21;;;;;;;;;;;21.30;79.70;;;;;;5075188;28;19912;-85
2023/09/02 09:53:05;;;;;;;;;;;21.30;79.70;;;;;;5075307;28;19927;-86
2023/09/02 09:55:31;;;;;;;;;;;21.50;78.60;;;;;;5075736;28;19908;-84
2023/09/02 09:57:58;;;;;;;;;;;21.50;78.50;;;;;;5073050;28;19924;-85
2023/09/02 10:00:24;;;;;;;;;;;21.50;78.20;;;;;;5068038;28;19912;-84
2023/09/02 10:02:53;;;;;;;;;;;21.50;79.30;;;;;;5072548;28;19918;-85
2023/09/02 10:05:29;;;;;;;;;;;21.50;78.90;;;;;;5085197;28;19923;-84
2023/09/02 10:07:59;;;;;;;;;;;21.40;78.30;;;;;;5071681;28;19912;-84
2023/09/02 10:10:34;;;;;;;;;;;21.30;78.60;;;;;;5070222;28;19914;-84
2023/09/02 10:13:00;;;;;;;;;;;21.30;78.00;;;;;;5066214;28;19924;-85
2023/09/02 10:15:26;;;;;;;;;;;21.30;78.30;;;;;;5074380;28;19912;-85
2023/09/02 10:17:57;;;;;;;;;;;21.20;79.20;;;;;;5068678;28;20382;-85
2023/09/02 10:20:24;;;;;;;;;;;21.20;79.10;;;;;;5071671;28;19912;-85
2023/09/02 10:22:50;;;;;;;;;;;21.20;78.90;;;;;;5071571;28;19913;-83
2023/09/02 10:25:24;;;;;;;;;;;21.20;78.80;;;;;;5072813;28;19912;-84
2023/09/02 10:28:09;;;;;;;;;;;21.10;79.50;;;;;;5073680;28;19919;-85
2023/09/02 10:30:42;;;;;;;;;;;21.20;80.60;;;;;;5063986;28;19912;-85
2023/09/02 10:33:23;;;;;;;;;;;21.30;80.30;;;;;;5070107;28;19924;-84
2023/09/02 10:35:57;;;;;;;;;;;21.30;80.60;;;;;;5066433;28;20003;-84
2023/09/02 10:38:24;;;;;;;;;;;21.40;78.40;;;;;;5087469;28;20057;-85
2023/09/02 10:40:54;;;;;;;;;;;21.50;77.50;;;;;;5057459;28;19924;-84
2023/09/02 10:43:19;;;;;;;;;;;21.50;78.10;;;;;;5069990;28;19912;-85
2023/09/02 10:45:45;;;;;;;;;;;21.60;77.50;;;;;;5070340;28;19919;-84
2023/09/02 10:48:11;;;;;;;;;;;21.70;77.00;;;;;;5068973;28;19920;-85
2023/09/02 10:50:37;;;;;;;;;;;21.60;77.70;;;;;;5076267;28;19916;-85
2023/09/02 10:53:03;;;;;;;;;;;21.70;78.20;;;;;;5074158;28;19924;-85
2023/09/02 10:55:31;;;;;;;;;;;21.80;77.90;;;;;;5074028;28;19912;-85
2023/09/02 10:57:59;;;;;;;;;;;21.80;77.60;;;;;;5074584;28;20010;-84
2023/09/02 11:00:25;;;;;;;;;;;21.90;77.20;;;;;;5076293;28;20387;-85
2023/09/02 11:02:52;;;;;;;;;;;21.80;77.10;;;;;;5073125;28;19912;-85
2023/09/02 11:05:18;;;;;;;;;;;21.80;77.50;;;;;;5078914;28;19912;-85
2023/09/02 11:07:44;;;;;;;;;;;21.80;77.50;;;;;;5096364;28;19973;-85
2023/09/02 11:10:10;;;;;;;;;;;21.80;77.10;;;;;;5094270;28;19920;-86
2023/09/02 11:12:55;;;;;;;;;;;21.80;77.40;;;;;;5078200;28;19920;-86
2023/09/02 11:15:20;;;;;;;;;;;21.90;77.40;;;;;;5078984;28;19953;-86
2023/09/02 11:17:46;;;;;;;;;;;21.80;77.40;;;;;;5076816;28;19916;-85
2023/09/02 11:20:12;;;;;;;;;;;22.10;76.10;;;;;;5077427;28;19947;-84
2023/09/02 11:22:47;;;;;;;;;;;22.50;75.80;;;;;;5068149;28;19951;-86
2023/09/02 11:25:32;;;;;;;;;;;22.50;76.80;;;;;;5072232;28;20377;-85
2023/09/02 11:28:02;;;;;;;;;;;22.60;75.90;;;;;;5074097;28;19920;-86
2023/09/02 11:30:31;;;;;;;;;;;22.60;75.20;;;;;;5090919;28;19970;-86
2023/09/02 11:32:58;;;;;;;;;;;22.60;75.50;;;;;;5069996;28;19913;-86
2023/09/02 11:35:29;;;;;;;;;;;22.50;75.40;;;;;;5077608;28;19995;-84
2023/09/02 11:38:16;;;;;;;;;;;22.60;74.50;;;;;;5074883;28;19912;-86
2023/09/02 11:40:41;;;;;;;;;;;22.60;74.90;;;;;;5077820;28;20340;-86
2023/09/02 11:43:07;;;;;;;;;;;22.50;76.50;;;;;;5068928;28;19912;-85
2023/09/02 11:45:34;;;;;;;;;;;22.40;77.00;;;;;;5073379;28;19930;-87
2023/09/02 11:48:01;;;;;;;;;;;22.40;78.10;;;;;;5070045;28;19948;-86
2023/09/02 11:50:27;;;;;;;;;;;22.50;77.10;;;;;;5076247;28;20354;-86
2023/09/02 11:52:54;;;;;;;;;;;22.40;77.70;;;;;;5075330;28;19924;-86
2023/09/02 11:55:19;;;;;;;;;;;22.50;76.90;;;;;;5069961;28;19919;-86
2023/09/02 11:57:48;;;;;;;;;;;22.70;75.90;;;;;;5084872;28;20309;-86
2023/09/02 12:00:30;;;;;;;;;;;22.60;77.20;;;;;;5089844;28;19951;-87
2023/09/02 12:02:58;;;;;;;;;;;22.50;76.90;;;;;;5070929;28;20425;-87
2023/09/02 12:05:24;;;;;;;;;;;22.50;76.10;;;;;;5077278;28;19919;-87
2023/09/02 12:07:50;;;;;;;;;;;22.40;77.60;;;;;;5086151;28;20035;-86
2023/09/02 12:10:17;;;;;;;;;;;22.50;77.80;;;;;;5066553;28;19916;-86
2023/09/02 12:12:44;;;;;;;;;;;22.50;77.30;;;;;;5072681;28;19916;-87
2023/09/02 12:15:14;;;;;;;;;;;22.50;76.70;;;;;;5077375;28;19912;-87
2023/09/02 12:17:40;;;;;;;;;;;22.60;75.90;;;;;;5077744;28;19908;-87
2023/09/02 12:20:06;;;;;;;;;;;22.80;73.30;;;;;;5093356;28;19907;-87
2023/09/02 12:22:32;;;;;;;;;;;22.60;74.50;;;;;;5090325;28;19908;-87
2023/09/02 12:24:57;;;;;;;;;;;22.60;75.10;;;;;;5076011;28;19966;-87
2023/09/02 12:27:23;;;;;;;;;;;22.50;76.40;;;;;;5072515;28;19912;-87
2023/09/02 12:29:55;;;;;;;;;;;22.60;75.60;;;;;;5077881;28;19912;-86
2023/09/02 12:32:21;;;;;;;;;;;22.70;75.40;;;;;;5071828;28;19916;-87
2023/09/02 12:34:46;;;;;;;;;;;22.70;76.80;;;;;;5071334;28;19912;-87
2023/09/02 12:37:21;;;;;;;;;;;22.80;74.90;;;;;;5080412;28;19919;-87
2023/09/02 12:39:48;;;;;;;;;;;23.00;74.30;;;;;;5074411;28;19912;-87
2023/09/02 12:42:17;;;;;;;;;;;23.00;73.80;;;;;;5077165;28;19953;-88
2023/09/02 12:44:50;;;;;;;;;;;23.10;73.90;;;;;;5073879;28;19912;-87
2023/09/02 12:47:19;;;;;;;;;;;23.10;75.20;;;;;;5072841;28;20178;-87
2023/09/02 12:49:45;;;;;;;;;;;23.10;73.00;;;;;;5079522;28;19971;-87
2023/09/02 12:52:15;;;;;;;;;;;23.10;74.20;;;;;;5076838;28;19967;-87
2023/09/02 12:54:44;;;;;;;;;;;23.20;71.80;;;;;;5076232;28;20378;-87
2023/09/02 12:57:09;;;;;;;;;;;23.20;72.40;;;;;;5077017;28;19908;-87
2023/09/02 12:59:35;;;;;;;;;;;23.50;70.60;;;;;;5070621;28;20297;-87
2023/09/02 13:02:00;;;;;;;;;;;23.50;71.70;;;;;;5068534;28;19982;-87
2023/09/02 13:04:26;;;;;;;;;;;23.40;71.80;;;;;;5066576;28;19919;-87
2023/09/02 13:06:51;;;;;;;;;;;23.50;72.50;;;;;;5067460;28;19919;-87
2023/09/02 13:09:17;;;;;;;;;;;23.50;71.20;;;;;;5074817;28;19916;-87
2023/09/02 13:11:42;;;;;;;;;;;23.50;71.30;;;;;;5066424;28;20381;-87
2023/09/02 13:14:43;;;;;;;;;;;;;;;;;;;;;
2023/09/02 13:17:35;;;;;;;;;;;23.40;72.30;;;;;;5079017;28;19918;-88
2023/09/02 13:20:02;;;;;;;;;;;23.70;70.60;;;;;;5073998;28;20385;-88
2023/09/02 13:22:27;;;;;;;;;;;23.70;70.30;;;;;;5076803;28;19919;-88
2023/09/02 13:24:53;;;;;;;;;;;23.60;70.60;;;;;;5074385;28;20328;-88
2023/09/02 13:27:19;;;;;;;;;;;23.50;71.30;;;;;;5075553;28;19916;-88
2023/09/02 13:29:44;;;;;;;;;;;23.30;69.80;;;;;;5068487;28;19913;-88
2023/09/02 13:32:24;;;;;;;;;;;23.20;71.30;;;;;;5074092;28;20007;-88
2023/09/02 13:34:50;;;;;;;;;;;23.20;71.60;;;;;;5074946;28;20003;-88
2023/09/02 13:37:19;;;;;;;;;;;23.30;71.60;;;;;;5070168;28;20521;-88
2023/09/02 13:39:45;;;;;;;;;;;23.30;73.10;;;;;;5072256;28;20369;-88
2023/09/02 13:42:14;;;;;;;;;;;23.30;72.40;;;;;;5074672;28;19912;-88
2023/09/02 13:44:42;;;;;;;;;;;23.30;73.00;;;;;;5075017;28;20297;-88
2023/09/02 13:47:08;;;;;;;;;;;23.30;72.00;;;;;;5069942;28;20407;-88
2023/09/02 13:49:33;;;;;;;;;;;23.30;72.70;;;;;;5071622;28;19965;-88
2023/09/02 13:51:59;;;;;;;;;;;23.30;72.40;;;;;;5075585;28;19912;-88
2023/09/02 13:54:25;;;;;;;;;;;23.10;74.20;;;;;;5080407;28;19912;-89
2023/09/02 13:56:50;;;;;;;;;;;23.20;72.30;;;;;;5079692;28;20369;-88
2023/09/02 13:59:16;;;;;;;;;;;23.40;72.20;;;;;;5076509;28;19908;-88
2023/09/02 14:01:41;;;;;;;;;;;23.40;71.80;;;;;;5074660;28;19912;-89
2023/09/02 14:04:08;;;;;;;;;;;23.40;72.50;;;;;;5076163;28;19971;-88
2023/09/02 14:06:33;;;;;;;;;;;23.60;72.20;;;;;;5075530;28;19912;-88
2023/09/02 14:08:59;;;;;;;;;;;23.70;72.00;;;;;;5074461;28;19970;-89
2023/09/02 14:11:25;;;;;;;;;;;23.80;72.80;;;;;;5078683;28;19931;-89
2023/09/02 14:13:53;;;;;;;;;;;23.60;74.00;;;;;;5077445;28;20398;-88
2023/09/02 14:16:19;;;;;;;;;;;23.30;75.30;;;;;;5082526;28;19912;-88
2023/09/02 14:18:45;;;;;;;;;;;23.10;75.80;;;;;;5086905;28;19927;-88
2023/09/02 14:21:10;;;;;;;;;;;23.00;76.30;;;;;;5067212;28;19962;-87
2023/09/02 14:23:36;;;;;;;;;;;22.90;76.70;;;;;;5075381;28;19967;-88